sensor_id;sensor_type;location;lat;lon;timestamp;P1;durP1;ratioP1;P2;durP2;ratioP2
53652;SDS011;39553;52.954;5.932;2022-11-20T00:00:25;19.92;;;11.82;;
53652;SDS011;39553;52.954;5.932;2022-11-20T00:02:51;26.17;;;11.48;;
53652;SDS011;39553;52.954;5.932;2022-11-20T00:05:17;20.52;;;10.50;;
53652;SDS011;39553;52.954;5.932;2022-11-20T00:07:43;20.05;;;10.85;;
53652;SDS011;39553;52.954;5.932;2022-11-20T00:10:09;22.27;;;10.77;;
53652;SDS011;39553;52.954;5.932;2022-11-20T00:12:34;21.73;;;10.68;;
53652;SDS011;39553;52.954;5.932;2022-11-20T00:15:00;24.85;;;10.90;;
53652;SDS011;39553;52.954;5.932;2022-11-20T00:17:26;19.25;;;10.90;;
53652;SDS011;39553;52.954;5.932;2022-11-20T00:19:52;19.27;;;11.70;;
53652;SDS011;39553;52.954;5.932;2022-11-20T00:22:17;25.17;;;12.80;;
53652;SDS011;39553;52.954;5.932;2022-11-20T00:24:43;21.70;;;11.32;;
53652;SDS011;39553;52.954;5.932;2022-11-20T00:27:09;22.83;;;11.80;;
53652;SDS011;39553;52.954;5.932;2022-11-20T00:29:34;23.65;;;11.05;;
53652;SDS011;39553;52.954;5.932;2022-11-20T00:32:00;23.17;;;12.20;;
53652;SDS011;39553;52.954;5.932;2022-11-20T00:34:26;22.42;;;12.25;;
53652;SDS011;39553;52.954;5.932;2022-11-20T00:36:51;25.73;;;12.45;;
53652;SDS011;39553;52.954;5.932;2022-11-20T00:39:17;24.27;;;12.63;;
53652;SDS011;39553;52.954;5.932;2022-11-20T00:41:43;26.85;;;12.02;;
53652;SDS011;39553;52.954;5.932;2022-11-20T00:44:08;21.45;;;11.70;;
53652;SDS011;39553;52.954;5.932;2022-11-20T00:46:34;24.35;;;13.45;;
53652;SDS011;39553;52.954;5.932;2022-11-20T00:49:00;22.23;;;12.35;;
53652;SDS011;39553;52.954;5.932;2022-11-20T00:51:26;25.02;;;12.43;;
53652;SDS011;39553;52.954;5.932;2022-11-20T00:53:54;22.10;;;11.50;;
53652;SDS011;39553;52.954;5.932;2022-11-20T00:56:21;21.17;;;10.90;;
53652;SDS011;39553;52.954;5.932;2022-11-20T00:58:47;24.98;;;12.20;;
53652;SDS011;39553;52.954;5.932;2022-11-20T01:01:15;22.42;;;10.82;;
53652;SDS011;39553;52.954;5.932;2022-11-20T01:03:43;23.05;;;12.02;;
53652;SDS011;39553;52.954;5.932;2022-11-20T01:06:15;24.33;;;13.05;;
53652;SDS011;39553;52.954;5.932;2022-11-20T01:08:43;21.38;;;11.13;;
53652;SDS011;39553;52.954;5.932;2022-11-20T01:11:11;22.67;;;10.98;;
53652;SDS011;39553;52.954;5.932;2022-11-20T01:13:42;24.85;;;11.43;;
53652;SDS011;39553;52.954;5.932;2022-11-20T01:16:44;19.77;;;10.90;;
53652;SDS011;39553;52.954;5.932;2022-11-20T01:19:04;20.70;;;11.05;;
53652;SDS011;39553;52.954;5.932;2022-11-20T01:21:32;23.08;;;12.10;;
53652;SDS011;39553;52.954;5.932;2022-11-20T01:24:03;21.83;;;12.20;;
53652;SDS011;39553;52.954;5.932;2022-11-20T01:26:33;21.45;;;11.32;;
53652;SDS011;39553;52.954;5.932;2022-11-20T01:29:00;22.38;;;12.35;;
53652;SDS011;39553;52.954;5.932;2022-11-20T01:31:30;22.98;;;12.25;;
53652;SDS011;39553;52.954;5.932;2022-11-20T01:34:00;22.23;;;11.43;;
53652;SDS011;39553;52.954;5.932;2022-11-20T01:36:28;25.85;;;12.52;;
53652;SDS011;39553;52.954;5.932;2022-11-20T01:38:57;23.45;;;11.40;;
53652;SDS011;39553;52.954;5.932;2022-11-20T01:41:26;21.17;;;10.73;;
53652;SDS011;39553;52.954;5.932;2022-11-20T01:44:14;21.48;;;11.07;;
53652;SDS011;39553;52.954;5.932;2022-11-20T01:47:04;20.10;;;9.93;;
53652;SDS011;39553;52.954;5.932;2022-11-20T01:49:33;19.15;;;10.50;;
53652;SDS011;39553;52.954;5.932;2022-11-20T01:52:04;20.33;;;10.57;;
53652;SDS011;39553;52.954;5.932;2022-11-20T01:54:38;25.38;;;12.07;;
53652;SDS011;39553;52.954;5.932;2022-11-20T01:57:09;20.02;;;10.73;;
53652;SDS011;39553;52.954;5.932;2022-11-20T01:59:38;18.35;;;10.75;;
53652;SDS011;39553;52.954;5.932;2022-11-20T02:02:09;20.65;;;11.15;;
53652;SDS011;39553;52.954;5.932;2022-11-20T02:04:35;25.02;;;11.52;;
53652;SDS011;39553;52.954;5.932;2022-11-20T02:07:01;19.52;;;10.18;;
53652;SDS011;39553;52.954;5.932;2022-11-20T02:09:28;19.73;;;10.73;;
53652;SDS011;39553;52.954;5.932;2022-11-20T02:11:54;21.48;;;11.02;;
53652;SDS011;39553;52.954;5.932;2022-11-20T02:14:21;21.05;;;11.38;;
53652;SDS011;39553;52.954;5.932;2022-11-20T02:16:48;20.85;;;10.18;;
53652;SDS011;39553;52.954;5.932;2022-11-20T02:24:39;19.60;;;10.05;;
53652;SDS011;39553;52.954;5.932;2022-11-20T02:27:10;16.05;;;10.25;;
53652;SDS011;39553;52.954;5.932;2022-11-20T02:29:39;17.45;;;10.10;;
53652;SDS011;39553;52.954;5.932;2022-11-20T02:32:19;20.48;;;11.02;;
53652;SDS011;39553;52.954;5.932;2022-11-20T02:34:46;27.48;;;11.05;;
53652;SDS011;39553;52.954;5.932;2022-11-20T02:37:12;21.58;;;11.35;;
53652;SDS011;39553;52.954;5.932;2022-11-20T02:39:39;22.30;;;11.10;;
53652;SDS011;39553;52.954;5.932;2022-11-20T02:42:05;21.48;;;10.88;;
53652;SDS011;39553;52.954;5.932;2022-11-20T02:44:31;19.52;;;10.82;;
53652;SDS011;39553;52.954;5.932;2022-11-20T02:46:57;19.45;;;9.65;;
53652;SDS011;39553;52.954;5.932;2022-11-20T02:49:23;20.13;;;11.63;;
53652;SDS011;39553;52.954;5.932;2022-11-20T02:51:49;20.25;;;11.95;;
53652;SDS011;39553;52.954;5.932;2022-11-20T02:54:15;21.33;;;11.48;;
53652;SDS011;39553;52.954;5.932;2022-11-20T02:56:41;20.02;;;10.50;;
53652;SDS011;39553;52.954;5.932;2022-11-20T02:59:08;19.27;;;11.35;;
53652;SDS011;39553;52.954;5.932;2022-11-20T03:01:34;20.92;;;10.68;;
53652;SDS011;39553;52.954;5.932;2022-11-20T03:04:00;18.13;;;9.57;;
53652;SDS011;39553;52.954;5.932;2022-11-20T03:06:26;20.95;;;10.57;;
53652;SDS011;39553;52.954;5.932;2022-11-20T03:08:51;19.50;;;10.90;;
53652;SDS011;39553;52.954;5.932;2022-11-20T03:11:18;18.67;;;9.98;;
53652;SDS011;39553;52.954;5.932;2022-11-20T03:13:44;17.95;;;10.05;;
53652;SDS011;39553;52.954;5.932;2022-11-20T03:16:11;18.80;;;10.68;;
53652;SDS011;39553;52.954;5.932;2022-11-20T03:18:39;21.42;;;10.55;;
53652;SDS011;39553;52.954;5.932;2022-11-20T03:21:06;18.27;;;9.77;;
53652;SDS011;39553;52.954;5.932;2022-11-20T03:23:33;17.95;;;10.75;;
53652;SDS011;39553;52.954;5.932;2022-11-20T03:26:09;18.75;;;10.38;;
53652;SDS011;39553;52.954;5.932;2022-11-20T03:28:50;21.17;;;9.85;;
53652;SDS011;39553;52.954;5.932;2022-11-20T03:31:18;20.70;;;11.05;;
53652;SDS011;39553;52.954;5.932;2022-11-20T03:33:46;20.10;;;10.40;;
53652;SDS011;39553;52.954;5.932;2022-11-20T03:36:12;19.10;;;10.60;;
53652;SDS011;39553;52.954;5.932;2022-11-20T03:38:39;16.92;;;9.68;;
53652;SDS011;39553;52.954;5.932;2022-11-20T03:41:10;22.75;;;9.77;;
53652;SDS011;39553;52.954;5.932;2022-11-20T03:43:38;17.13;;;10.02;;
53652;SDS011;39553;52.954;5.932;2022-11-20T03:46:05;17.67;;;9.85;;
53652;SDS011;39553;52.954;5.932;2022-11-20T03:48:32;18.30;;;10.57;;
53652;SDS011;39553;52.954;5.932;2022-11-20T03:51:10;18.08;;;10.27;;
53652;SDS011;39553;52.954;5.932;2022-11-20T03:53:44;18.33;;;9.38;;
53652;SDS011;39553;52.954;5.932;2022-11-20T03:56:11;19.52;;;10.27;;
53652;SDS011;39553;52.954;5.932;2022-11-20T03:58:40;18.52;;;10.60;;
53652;SDS011;39553;52.954;5.932;2022-11-20T04:01:10;19.65;;;10.10;;
53652;SDS011;39553;52.954;5.932;2022-11-20T04:03:38;17.40;;;9.50;;
53652;SDS011;39553;52.954;5.932;2022-11-20T04:06:06;19.85;;;11.38;;
53652;SDS011;39553;52.954;5.932;2022-11-20T04:08:37;23.10;;;10.55;;
53652;SDS011;39553;52.954;5.932;2022-11-20T04:11:10;19.25;;;10.57;;
53652;SDS011;39553;52.954;5.932;2022-11-20T04:13:37;20.95;;;9.73;;
53652;SDS011;39553;52.954;5.932;2022-11-20T04:16:04;18.67;;;10.10;;
53652;SDS011;39553;52.954;5.932;2022-11-20T04:18:30;22.50;;;10.73;;
53652;SDS011;39553;52.954;5.932;2022-11-20T04:20:57;19.38;;;10.32;;
53652;SDS011;39553;52.954;5.932;2022-11-20T04:23:23;25.20;;;11.48;;
53652;SDS011;39553;52.954;5.932;2022-11-20T04:25:49;21.90;;;11.90;;
53652;SDS011;39553;52.954;5.932;2022-11-20T04:28:15;20.42;;;11.00;;
53652;SDS011;39553;52.954;5.932;2022-11-20T04:30:40;22.55;;;10.60;;
53652;SDS011;39553;52.954;5.932;2022-11-20T04:33:06;22.83;;;11.10;;
53652;SDS011;39553;52.954;5.932;2022-11-20T04:35:35;21.13;;;10.52;;
53652;SDS011;39553;52.954;5.932;2022-11-20T04:38:02;19.08;;;9.90;;
53652;SDS011;39553;52.954;5.932;2022-11-20T04:40:28;21.23;;;11.40;;
53652;SDS011;39553;52.954;5.932;2022-11-20T04:42:54;22.50;;;10.88;;
53652;SDS011;39553;52.954;5.932;2022-11-20T04:45:20;20.45;;;11.80;;
53652;SDS011;39553;52.954;5.932;2022-11-20T04:47:47;20.55;;;11.32;;
53652;SDS011;39553;52.954;5.932;2022-11-20T04:50:13;19.50;;;10.82;;
53652;SDS011;39553;52.954;5.932;2022-11-20T04:52:38;20.05;;;11.40;;
53652;SDS011;39553;52.954;5.932;2022-11-20T04:55:04;21.08;;;10.63;;
53652;SDS011;39553;52.954;5.932;2022-11-20T04:57:30;19.15;;;10.82;;
53652;SDS011;39553;52.954;5.932;2022-11-20T04:59:56;21.05;;;11.10;;
53652;SDS011;39553;52.954;5.932;2022-11-20T05:02:22;17.65;;;10.73;;
53652;SDS011;39553;52.954;5.932;2022-11-20T05:04:48;23.60;;;12.10;;
53652;SDS011;39553;52.954;5.932;2022-11-20T05:07:14;22.98;;;12.23;;
53652;SDS011;39553;52.954;5.932;2022-11-20T05:09:39;19.67;;;11.15;;
53652;SDS011;39553;52.954;5.932;2022-11-20T05:12:07;22.00;;;10.75;;
53652;SDS011;39553;52.954;5.932;2022-11-20T05:14:33;24.45;;;12.05;;
53652;SDS011;39553;52.954;5.932;2022-11-20T05:16:59;21.23;;;12.02;;
53652;SDS011;39553;52.954;5.932;2022-11-20T05:19:25;22.73;;;11.80;;
53652;SDS011;39553;52.954;5.932;2022-11-20T05:21:51;20.65;;;11.88;;
53652;SDS011;39553;52.954;5.932;2022-11-20T05:24:16;18.25;;;10.48;;
53652;SDS011;39553;52.954;5.932;2022-11-20T05:26:42;19.98;;;10.85;;
53652;SDS011;39553;52.954;5.932;2022-11-20T05:29:11;22.25;;;11.20;;
53652;SDS011;39553;52.954;5.932;2022-11-20T05:31:38;21.17;;;11.75;;
53652;SDS011;39553;52.954;5.932;2022-11-20T05:34:05;20.50;;;12.02;;
53652;SDS011;39553;52.954;5.932;2022-11-20T05:36:31;21.58;;;11.20;;
53652;SDS011;39553;52.954;5.932;2022-11-20T05:38:57;25.42;;;11.25;;
53652;SDS011;39553;52.954;5.932;2022-11-20T05:41:23;22.13;;;10.93;;
53652;SDS011;39553;52.954;5.932;2022-11-20T05:43:49;20.95;;;11.68;;
53652;SDS011;39553;52.954;5.932;2022-11-20T05:46:17;19.60;;;10.35;;
53652;SDS011;39553;52.954;5.932;2022-11-20T05:48:45;23.80;;;11.75;;
53652;SDS011;39553;52.954;5.932;2022-11-20T05:51:12;20.80;;;10.88;;
53652;SDS011;39553;52.954;5.932;2022-11-20T05:53:39;20.60;;;10.88;;
53652;SDS011;39553;52.954;5.932;2022-11-20T05:56:09;22.05;;;11.73;;
53652;SDS011;39553;52.954;5.932;2022-11-20T05:58:37;20.25;;;10.70;;
53652;SDS011;39553;52.954;5.932;2022-11-20T06:01:14;21.25;;;11.15;;
53652;SDS011;39553;52.954;5.932;2022-11-20T06:03:42;23.35;;;12.57;;
53652;SDS011;39553;52.954;5.932;2022-11-20T06:06:11;22.05;;;11.02;;
53652;SDS011;39553;52.954;5.932;2022-11-20T06:08:37;19.90;;;11.10;;
53652;SDS011;39553;52.954;5.932;2022-11-20T06:11:12;21.98;;;11.00;;
53652;SDS011;39553;52.954;5.932;2022-11-20T06:13:39;18.02;;;10.90;;
53652;SDS011;39553;52.954;5.932;2022-11-20T06:16:05;22.13;;;10.48;;
53652;SDS011;39553;52.954;5.932;2022-11-20T06:18:31;21.98;;;10.70;;
53652;SDS011;39553;52.954;5.932;2022-11-20T06:21:30;22.52;;;11.73;;
53652;SDS011;39553;52.954;5.932;2022-11-20T06:23:50;21.90;;;10.57;;
53652;SDS011;39553;52.954;5.932;2022-11-20T06:26:21;23.25;;;11.68;;
53652;SDS011;39553;52.954;5.932;2022-11-20T06:28:49;21.42;;;11.82;;
53652;SDS011;39553;52.954;5.932;2022-11-20T06:31:17;20.10;;;11.55;;
53652;SDS011;39553;52.954;5.932;2022-11-20T06:33:44;21.65;;;12.07;;
53652;SDS011;39553;52.954;5.932;2022-11-20T06:36:11;25.63;;;11.20;;
53652;SDS011;39553;52.954;5.932;2022-11-20T06:38:38;23.83;;;12.43;;
53652;SDS011;39553;52.954;5.932;2022-11-20T06:41:12;22.20;;;12.07;;
53652;SDS011;39553;52.954;5.932;2022-11-20T06:43:39;20.42;;;11.60;;
53652;SDS011;39553;52.954;5.932;2022-11-20T06:46:06;22.10;;;11.60;;
53652;SDS011;39553;52.954;5.932;2022-11-20T06:48:32;23.33;;;12.57;;
53652;SDS011;39553;52.954;5.932;2022-11-20T06:50:58;19.83;;;10.55;;
53652;SDS011;39553;52.954;5.932;2022-11-20T06:53:24;21.25;;;11.13;;
53652;SDS011;39553;52.954;5.932;2022-11-20T06:55:50;23.52;;;11.32;;
53652;SDS011;39553;52.954;5.932;2022-11-20T06:58:16;22.17;;;11.45;;
53652;SDS011;39553;52.954;5.932;2022-11-20T07:00:43;22.88;;;11.43;;
53652;SDS011;39553;52.954;5.932;2022-11-20T07:03:10;18.95;;;11.73;;
53652;SDS011;39553;52.954;5.932;2022-11-20T07:05:36;19.98;;;10.50;;
53652;SDS011;39553;52.954;5.932;2022-11-20T07:08:03;23.05;;;11.85;;
53652;SDS011;39553;52.954;5.932;2022-11-20T07:10:30;19.52;;;10.30;;
53652;SDS011;39553;52.954;5.932;2022-11-20T07:12:56;19.25;;;11.30;;
53652;SDS011;39553;52.954;5.932;2022-11-20T07:15:22;17.80;;;11.35;;
53652;SDS011;39553;52.954;5.932;2022-11-20T07:17:49;19.27;;;10.35;;
53652;SDS011;39553;52.954;5.932;2022-11-20T07:20:14;23.35;;;12.48;;
53652;SDS011;39553;52.954;5.932;2022-11-20T07:22:41;19.40;;;10.38;;
53652;SDS011;39553;52.954;5.932;2022-11-20T07:25:07;17.98;;;10.55;;
53652;SDS011;39553;52.954;5.932;2022-11-20T07:27:34;20.15;;;10.13;;
53652;SDS011;39553;52.954;5.932;2022-11-20T07:30:00;19.95;;;10.75;;
53652;SDS011;39553;52.954;5.932;2022-11-20T07:32:26;21.48;;;11.98;;
53652;SDS011;39553;52.954;5.932;2022-11-20T07:34:51;21.55;;;11.10;;
53652;SDS011;39553;52.954;5.932;2022-11-20T07:37:17;21.85;;;11.20;;
53652;SDS011;39553;52.954;5.932;2022-11-20T07:39:43;20.77;;;10.93;;
53652;SDS011;39553;52.954;5.932;2022-11-20T07:42:09;18.00;;;9.90;;
53652;SDS011;39553;52.954;5.932;2022-11-20T07:44:37;20.92;;;11.60;;
53652;SDS011;39553;52.954;5.932;2022-11-20T07:47:03;17.38;;;9.95;;
53652;SDS011;39553;52.954;5.932;2022-11-20T07:49:29;18.75;;;10.00;;
53652;SDS011;39553;52.954;5.932;2022-11-20T07:51:55;20.10;;;11.15;;
53652;SDS011;39553;52.954;5.932;2022-11-20T07:54:21;21.55;;;11.23;;
53652;SDS011;39553;52.954;5.932;2022-11-20T07:56:49;19.35;;;10.52;;
53652;SDS011;39553;52.954;5.932;2022-11-20T07:59:15;25.55;;;11.85;;
53652;SDS011;39553;52.954;5.932;2022-11-20T08:01:41;21.05;;;10.82;;
53652;SDS011;39553;52.954;5.932;2022-11-20T08:04:07;19.48;;;10.02;;
53652;SDS011;39553;52.954;5.932;2022-11-20T08:06:35;21.45;;;10.60;;
53652;SDS011;39553;52.954;5.932;2022-11-20T08:09:01;18.38;;;11.05;;
53652;SDS011;39553;52.954;5.932;2022-11-20T08:11:28;20.73;;;10.70;;
53652;SDS011;39553;52.954;5.932;2022-11-20T08:14:12;17.83;;;9.80;;
53652;SDS011;39553;52.954;5.932;2022-11-20T08:16:42;19.05;;;10.30;;
53652;SDS011;39553;52.954;5.932;2022-11-20T08:19:12;19.07;;;10.63;;
53652;SDS011;39553;52.954;5.932;2022-11-20T08:21:39;18.17;;;9.82;;
53652;SDS011;39553;52.954;5.932;2022-11-20T08:24:05;18.42;;;9.68;;
53652;SDS011;39553;52.954;5.932;2022-11-20T08:26:32;20.45;;;10.15;;
53652;SDS011;39553;52.954;5.932;2022-11-20T08:28:59;20.45;;;11.18;;
53652;SDS011;39553;52.954;5.932;2022-11-20T08:31:25;21.45;;;10.57;;
53652;SDS011;39553;52.954;5.932;2022-11-20T08:33:52;19.13;;;11.23;;
53652;SDS011;39553;52.954;5.932;2022-11-20T08:36:18;20.73;;;12.15;;
53652;SDS011;39553;52.954;5.932;2022-11-20T08:38:49;16.83;;;10.50;;
53652;SDS011;39553;52.954;5.932;2022-11-20T08:41:19;19.13;;;9.88;;
53652;SDS011;39553;52.954;5.932;2022-11-20T08:43:51;22.65;;;10.55;;
53652;SDS011;39553;52.954;5.932;2022-11-20T08:46:21;18.88;;;9.77;;
53652;SDS011;39553;52.954;5.932;2022-11-20T08:48:48;18.92;;;10.57;;
53652;SDS011;39553;52.954;5.932;2022-11-20T08:51:14;21.45;;;11.95;;
53652;SDS011;39553;52.954;5.932;2022-11-20T08:53:40;14.85;;;9.93;;
53652;SDS011;39553;52.954;5.932;2022-11-20T08:56:06;15.00;;;9.43;;
53652;SDS011;39553;52.954;5.932;2022-11-20T08:58:32;15.52;;;9.10;;
53652;SDS011;39553;52.954;5.932;2022-11-20T09:00:58;14.63;;;8.35;;
53652;SDS011;39553;52.954;5.932;2022-11-20T09:03:24;12.35;;;8.40;;
53652;SDS011;39553;52.954;5.932;2022-11-20T09:05:56;11.98;;;8.40;;
53652;SDS011;39553;52.954;5.932;2022-11-20T09:10:53;12.68;;;8.55;;
53652;SDS011;39553;52.954;5.932;2022-11-20T09:13:20;13.60;;;8.10;;
53652;SDS011;39553;52.954;5.932;2022-11-20T09:15:46;13.23;;;7.63;;
53652;SDS011;39553;52.954;5.932;2022-11-20T09:18:12;13.40;;;8.52;;
53652;SDS011;39553;52.954;5.932;2022-11-20T09:20:38;13.98;;;9.30;;
53652;SDS011;39553;52.954;5.932;2022-11-20T09:23:04;12.25;;;8.68;;
53652;SDS011;39553;52.954;5.932;2022-11-20T09:25:29;14.88;;;9.05;;
53652;SDS011;39553;52.954;5.932;2022-11-20T09:27:55;16.73;;;8.82;;
53652;SDS011;39553;52.954;5.932;2022-11-20T09:30:22;14.00;;;8.38;;
53652;SDS011;39553;52.954;5.932;2022-11-20T09:32:48;14.05;;;7.93;;
53652;SDS011;39553;52.954;5.932;2022-11-20T09:35:14;12.68;;;8.77;;
53652;SDS011;39553;52.954;5.932;2022-11-20T09:37:39;15.15;;;7.85;;
53652;SDS011;39553;52.954;5.932;2022-11-20T09:40:05;14.82;;;8.95;;
53652;SDS011;39553;52.954;5.932;2022-11-20T09:42:57;13.50;;;7.50;;
53652;SDS011;39553;52.954;5.932;2022-11-20T09:50:55;13.38;;;8.35;;
53652;SDS011;39553;52.954;5.932;2022-11-20T09:56:19;14.25;;;8.95;;
53652;SDS011;39553;52.954;5.932;2022-11-20T09:58:47;17.83;;;9.30;;
53652;SDS011;39553;52.954;5.932;2022-11-20T10:06:28;17.17;;;8.85;;
53652;SDS011;39553;52.954;5.932;2022-11-20T10:17:21;15.45;;;8.50;;
53652;SDS011;39553;52.954;5.932;2022-11-20T10:25:33;12.82;;;7.80;;
53652;SDS011;39553;52.954;5.932;2022-11-20T10:31:08;15.48;;;8.30;;
53652;SDS011;39553;52.954;5.932;2022-11-20T10:33:36;11.82;;;7.63;;
53652;SDS011;39553;52.954;5.932;2022-11-20T10:36:13;13.95;;;7.60;;
53652;SDS011;39553;52.954;5.932;2022-11-20T10:38:50;14.23;;;7.78;;
53652;SDS011;39553;52.954;5.932;2022-11-20T10:41:30;18.23;;;8.20;;
53652;SDS011;39553;52.954;5.932;2022-11-20T10:46:29;13.02;;;7.75;;
53652;SDS011;39553;52.954;5.932;2022-11-20T10:49:11;9.98;;;6.55;;
53652;SDS011;39553;52.954;5.932;2022-11-20T10:51:42;11.25;;;7.78;;
53652;SDS011;39553;52.954;5.932;2022-11-20T10:59:27;12.35;;;7.18;;
53652;SDS011;39553;52.954;5.932;2022-11-20T11:01:56;12.07;;;7.75;;
53652;SDS011;39553;52.954;5.932;2022-11-20T11:06:54;11.75;;;7.63;;
53652;SDS011;39553;52.954;5.932;2022-11-20T11:09:37;15.27;;;7.72;;
53652;SDS011;39553;52.954;5.932;2022-11-20T11:12:07;13.65;;;7.38;;
53652;SDS011;39553;52.954;5.932;2022-11-20T11:14:47;11.05;;;7.00;;
53652;SDS011;39553;52.954;5.932;2022-11-20T11:17:22;12.55;;;7.60;;
53652;SDS011;39553;52.954;5.932;2022-11-20T11:20:05;14.75;;;7.65;;
53652;SDS011;39553;52.954;5.932;2022-11-20T11:22:45;15.05;;;8.13;;
53652;SDS011;39553;52.954;5.932;2022-11-20T11:25:55;13.63;;;7.57;;
53652;SDS011;39553;52.954;5.932;2022-11-20T11:28:27;12.80;;;7.55;;
53652;SDS011;39553;52.954;5.932;2022-11-20T11:30:53;11.65;;;7.25;;
53652;SDS011;39553;52.954;5.932;2022-11-20T11:33:30;16.13;;;7.13;;
53652;SDS011;39553;52.954;5.932;2022-11-20T11:36:14;14.52;;;8.52;;
53652;SDS011;39553;52.954;5.932;2022-11-20T11:38:45;10.82;;;7.15;;
53652;SDS011;39553;52.954;5.932;2022-11-20T11:41:18;12.27;;;7.32;;
53652;SDS011;39553;52.954;5.932;2022-11-20T11:43:51;13.20;;;7.45;;
53652;SDS011;39553;52.954;5.932;2022-11-20T11:46:59;13.18;;;7.22;;
53652;SDS011;39553;52.954;5.932;2022-11-20T11:49:25;10.55;;;7.13;;
53652;SDS011;39553;52.954;5.932;2022-11-20T11:54:54;12.43;;;7.40;;
53652;SDS011;39553;52.954;5.932;2022-11-20T12:05:21;11.85;;;7.28;;
53652;SDS011;39553;52.954;5.932;2022-11-20T12:15:41;11.00;;;6.70;;
53652;SDS011;39553;52.954;5.932;2022-11-20T12:18:14;13.77;;;7.53;;
53652;SDS011;39553;52.954;5.932;2022-11-20T12:20:45;11.25;;;7.28;;
53652;SDS011;39553;52.954;5.932;2022-11-20T12:26:00;12.90;;;7.53;;
53652;SDS011;39553;52.954;5.932;2022-11-20T12:31:31;12.68;;;7.00;;
53652;SDS011;39553;52.954;5.932;2022-11-20T12:34:10;12.32;;;7.22;;
53652;SDS011;39553;52.954;5.932;2022-11-20T12:37:34;10.15;;;6.82;;
53652;SDS011;39553;52.954;5.932;2022-11-20T12:39:49;12.40;;;7.18;;
53652;SDS011;39553;52.954;5.932;2022-11-20T12:43:02;12.70;;;7.18;;
53652;SDS011;39553;52.954;5.932;2022-11-20T12:56:25;11.55;;;7.20;;
53652;SDS011;39553;52.954;5.932;2022-11-20T13:01:47;12.35;;;7.43;;
53652;SDS011;39553;52.954;5.932;2022-11-20T13:07:05;11.45;;;7.82;;
53652;SDS011;39553;52.954;5.932;2022-11-20T13:09:35;12.80;;;7.38;;
53652;SDS011;39553;52.954;5.932;2022-11-20T13:12:29;10.77;;;6.85;;
53652;SDS011;39553;52.954;5.932;2022-11-20T13:17:40;11.38;;;7.65;;
53652;SDS011;39553;52.954;5.932;2022-11-20T13:20:12;14.43;;;6.88;;
53652;SDS011;39553;52.954;5.932;2022-11-20T13:25:09;12.63;;;6.55;;
53652;SDS011;39553;52.954;5.932;2022-11-20T13:27:36;11.82;;;6.30;;
53652;SDS011;39553;52.954;5.932;2022-11-20T13:30:14;10.05;;;6.72;;
53652;SDS011;39553;52.954;5.932;2022-11-20T13:35:24;14.00;;;7.75;;
53652;SDS011;39553;52.954;5.932;2022-11-20T13:40:36;12.52;;;7.32;;
53652;SDS011;39553;52.954;5.932;2022-11-20T13:43:38;14.70;;;7.95;;
53652;SDS011;39553;52.954;5.932;2022-11-20T13:46:07;11.93;;;6.93;;
53652;SDS011;39553;52.954;5.932;2022-11-20T13:48:44;15.77;;;8.30;;
53652;SDS011;39553;52.954;5.932;2022-11-20T14:02:33;12.45;;;7.38;;
53652;SDS011;39553;52.954;5.932;2022-11-20T14:04:59;11.82;;;7.38;;
53652;SDS011;39553;52.954;5.932;2022-11-20T14:07:35;14.68;;;7.82;;
53652;SDS011;39553;52.954;5.932;2022-11-20T14:10:05;15.00;;;8.75;;
53652;SDS011;39553;52.954;5.932;2022-11-20T14:12:43;14.90;;;7.82;;
53652;SDS011;39553;52.954;5.932;2022-11-20T14:15:22;13.20;;;8.27;;
53652;SDS011;39553;52.954;5.932;2022-11-20T14:17:50;14.07;;;8.00;;
53652;SDS011;39553;52.954;5.932;2022-11-20T14:20:16;13.95;;;7.72;;
53652;SDS011;39553;52.954;5.932;2022-11-20T14:22:48;14.23;;;8.68;;
53652;SDS011;39553;52.954;5.932;2022-11-20T14:27:43;14.07;;;8.32;;
53652;SDS011;39553;52.954;5.932;2022-11-20T14:30:23;13.80;;;8.13;;
53652;SDS011;39553;52.954;5.932;2022-11-20T14:32:51;14.75;;;8.63;;
53652;SDS011;39553;52.954;5.932;2022-11-20T14:37:53;14.52;;;8.57;;
53652;SDS011;39553;52.954;5.932;2022-11-20T14:40:30;12.95;;;8.25;;
53652;SDS011;39553;52.954;5.932;2022-11-20T14:43:00;13.50;;;8.20;;
53652;SDS011;39553;52.954;5.932;2022-11-20T14:45:40;14.65;;;7.50;;
53652;SDS011;39553;52.954;5.932;2022-11-20T14:48:08;16.08;;;7.82;;
53652;SDS011;39553;52.954;5.932;2022-11-20T14:50:35;14.48;;;8.30;;
53652;SDS011;39553;52.954;5.932;2022-11-20T14:53:03;12.52;;;7.43;;
53652;SDS011;39553;52.954;5.932;2022-11-20T14:55:36;12.75;;;7.00;;
53652;SDS011;39553;52.954;5.932;2022-11-20T14:58:04;14.40;;;8.63;;
53652;SDS011;39553;52.954;5.932;2022-11-20T15:00:54;15.82;;;7.95;;
53652;SDS011;39553;52.954;5.932;2022-11-20T15:03:22;16.30;;;8.15;;
53652;SDS011;39553;52.954;5.932;2022-11-20T15:05:55;16.15;;;8.55;;
53652;SDS011;39553;52.954;5.932;2022-11-20T15:08:21;15.68;;;8.73;;
53652;SDS011;39553;52.954;5.932;2022-11-20T15:10:47;14.63;;;7.93;;
53652;SDS011;39553;52.954;5.932;2022-11-20T15:13:29;15.60;;;8.65;;
53652;SDS011;39553;52.954;5.932;2022-11-20T15:16:03;16.35;;;9.10;;
53652;SDS011;39553;52.954;5.932;2022-11-20T15:18:43;18.02;;;9.30;;
53652;SDS011;39553;52.954;5.932;2022-11-20T15:21:10;16.40;;;9.75;;
53652;SDS011;39553;52.954;5.932;2022-11-20T15:23:40;16.17;;;10.02;;
53652;SDS011;39553;52.954;5.932;2022-11-20T15:26:07;16.40;;;9.82;;
53652;SDS011;39553;52.954;5.932;2022-11-20T15:28:34;14.93;;;8.63;;
53652;SDS011;39553;52.954;5.932;2022-11-20T15:31:02;17.95;;;9.30;;
53652;SDS011;39553;52.954;5.932;2022-11-20T15:33:29;14.32;;;8.93;;
53652;SDS011;39553;52.954;5.932;2022-11-20T15:35:55;15.65;;;9.48;;
53652;SDS011;39553;52.954;5.932;2022-11-20T15:38:22;15.55;;;9.48;;
53652;SDS011;39553;52.954;5.932;2022-11-20T15:40:47;16.67;;;10.07;;
53652;SDS011;39553;52.954;5.932;2022-11-20T15:43:13;15.48;;;9.60;;
53652;SDS011;39553;52.954;5.932;2022-11-20T15:45:43;15.60;;;10.27;;
53652;SDS011;39553;52.954;5.932;2022-11-20T15:48:12;17.98;;;10.05;;
53652;SDS011;39553;52.954;5.932;2022-11-20T15:53:34;19.00;;;10.43;;
53652;SDS011;39553;52.954;5.932;2022-11-20T15:56:00;16.55;;;9.52;;
53652;SDS011;39553;52.954;5.932;2022-11-20T15:58:26;17.52;;;9.73;;
53652;SDS011;39553;52.954;5.932;2022-11-20T16:00:52;17.20;;;10.18;;
53652;SDS011;39553;52.954;5.932;2022-11-20T16:03:18;17.70;;;9.93;;
53652;SDS011;39553;52.954;5.932;2022-11-20T16:05:44;18.48;;;9.75;;
53652;SDS011;39553;52.954;5.932;2022-11-20T16:08:13;17.25;;;10.38;;
53652;SDS011;39553;52.954;5.932;2022-11-20T16:10:39;16.40;;;10.35;;
53652;SDS011;39553;52.954;5.932;2022-11-20T16:13:16;14.60;;;9.20;;
53652;SDS011;39553;52.954;5.932;2022-11-20T16:16:03;14.68;;;9.73;;
53652;SDS011;39553;52.954;5.932;2022-11-20T16:18:31;14.77;;;9.27;;
53652;SDS011;39553;52.954;5.932;2022-11-20T16:20:57;16.55;;;9.40;;
53652;SDS011;39553;52.954;5.932;2022-11-20T16:23:23;17.40;;;10.07;;
53652;SDS011;39553;52.954;5.932;2022-11-20T16:25:50;17.40;;;10.65;;
53652;SDS011;39553;52.954;5.932;2022-11-20T16:28:16;16.05;;;9.50;;
53652;SDS011;39553;52.954;5.932;2022-11-20T16:30:45;18.98;;;10.85;;
53652;SDS011;39553;52.954;5.932;2022-11-20T16:33:12;18.20;;;9.88;;
53652;SDS011;39553;52.954;5.932;2022-11-20T16:35:39;16.38;;;9.95;;
53652;SDS011;39553;52.954;5.932;2022-11-20T16:38:05;16.63;;;10.30;;